Pipestone, Minnesota
Current Conditions -  °F | °C
As of 6:14 PM on Friday 19 Dec 2014 (Local Time) from KPQN Reporting Station
Haze Haze  
Wind Chill: 25°   Ceiling: 500
Heat Index: 30°   Visibility: 5mi
Dew Point: 28°   Wind: 5mph
Humidity: 93%   Direction: 210°SSW
Pressure: 30.07"   Gusts: NA
Location:  44°N, 96.32°W
Report Text: KPQN 200014Z AUTO 21004KT 5SM BR OVC005 M01/M02 A3007 RMK AO2
Loading
Personal Weather Stations






























Interactive Weather Map New forecast layout! Learn more

10-Day Weather Forecast

Advertisements
Track Severe Weather on mobile